sensor_id;sensor_type;location;lat;lon;timestamp;P1;durP1;ratioP1;P2;durP2;ratioP2
62574;SDS011;70119;45.638;11.714;2024-01-11T00:00:48;14.13;;;9.80;;
62574;SDS011;70119;45.638;11.714;2024-01-11T00:03:14;13.23;;;9.10;;
62574;SDS011;70119;45.638;11.714;2024-01-11T00:05:40;14.23;;;9.30;;
62574;SDS011;70119;45.638;11.714;2024-01-11T00:08:07;14.55;;;9.65;;
62574;SDS011;70119;45.638;11.714;2024-01-11T00:10:32;14.30;;;9.73;;
62574;SDS011;70119;45.638;11.714;2024-01-11T00:12:58;13.73;;;9.82;;
62574;SDS011;70119;45.638;11.714;2024-01-11T00:15:24;14.38;;;9.75;;
62574;SDS011;70119;45.638;11.714;2024-01-11T00:17:50;13.35;;;9.30;;
62574;SDS011;70119;45.638;11.714;2024-01-11T00:20:16;14.52;;;9.57;;
62574;SDS011;70119;45.638;11.714;2024-01-11T00:22:42;15.02;;;10.10;;
62574;SDS011;70119;45.638;11.714;2024-01-11T00:25:07;13.65;;;9.77;;
62574;SDS011;70119;45.638;11.714;2024-01-11T00:27:33;12.45;;;9.63;;
62574;SDS011;70119;45.638;11.714;2024-01-11T00:29:59;14.05;;;9.80;;
62574;SDS011;70119;45.638;11.714;2024-01-11T00:32:25;14.98;;;9.35;;
62574;SDS011;70119;45.638;11.714;2024-01-11T00:34:51;13.38;;;9.48;;
62574;SDS011;70119;45.638;11.714;2024-01-11T00:37:17;13.25;;;9.75;;
62574;SDS011;70119;45.638;11.714;2024-01-11T00:39:43;12.95;;;9.27;;
62574;SDS011;70119;45.638;11.714;2024-01-11T00:42:09;12.90;;;9.50;;
62574;SDS011;70119;45.638;11.714;2024-01-11T00:44:35;14.38;;;9.68;;
62574;SDS011;70119;45.638;11.714;2024-01-11T00:47:01;13.75;;;9.98;;
62574;SDS011;70119;45.638;11.714;2024-01-11T00:49:27;13.65;;;9.43;;
62574;SDS011;70119;45.638;11.714;2024-01-11T00:51:52;13.50;;;9.73;;
62574;SDS011;70119;45.638;11.714;2024-01-11T00:54:18;15.10;;;9.90;;
62574;SDS011;70119;45.638;11.714;2024-01-11T00:56:45;15.55;;;10.35;;
62574;SDS011;70119;45.638;11.714;2024-01-11T00:59:10;15.43;;;10.00;;
62574;SDS011;70119;45.638;11.714;2024-01-11T01:01:36;14.68;;;10.02;;
62574;SDS011;70119;45.638;11.714;2024-01-11T01:04:02;13.98;;;9.38;;
62574;SDS011;70119;45.638;11.714;2024-01-11T01:06:28;13.60;;;9.35;;
62574;SDS011;70119;45.638;11.714;2024-01-11T01:08:55;15.07;;;9.63;;
62574;SDS011;70119;45.638;11.714;2024-01-11T01:11:21;14.00;;;9.25;;
62574;SDS011;70119;45.638;11.714;2024-01-11T01:13:46;13.27;;;9.65;;
62574;SDS011;70119;45.638;11.714;2024-01-11T01:16:12;14.07;;;9.98;;
62574;SDS011;70119;45.638;11.714;2024-01-11T01:18:39;12.13;;;8.93;;
62574;SDS011;70119;45.638;11.714;2024-01-11T01:21:04;13.93;;;10.25;;
62574;SDS011;70119;45.638;11.714;2024-01-11T01:23:32;12.77;;;9.18;;
62574;SDS011;70119;45.638;11.714;2024-01-11T01:25:57;15.13;;;9.55;;
62574;SDS011;70119;45.638;11.714;2024-01-11T01:28:23;14.18;;;9.75;;
62574;SDS011;70119;45.638;11.714;2024-01-11T01:30:49;14.32;;;9.93;;
62574;SDS011;70119;45.638;11.714;2024-01-11T01:33:15;12.43;;;9.73;;
62574;SDS011;70119;45.638;11.714;2024-01-11T01:35:41;12.52;;;9.48;;
62574;SDS011;70119;45.638;11.714;2024-01-11T01:38:07;14.88;;;9.88;;
62574;SDS011;70119;45.638;11.714;2024-01-11T01:40:32;13.82;;;9.70;;
62574;SDS011;70119;45.638;11.714;2024-01-11T01:42:58;15.23;;;10.32;;
62574;SDS011;70119;45.638;11.714;2024-01-11T01:45:25;14.00;;;9.50;;
62574;SDS011;70119;45.638;11.714;2024-01-11T01:47:51;13.43;;;9.20;;
62574;SDS011;70119;45.638;11.714;2024-01-11T01:50:17;13.15;;;9.30;;
62574;SDS011;70119;45.638;11.714;2024-01-11T01:52:45;12.95;;;9.68;;
62574;SDS011;70119;45.638;11.714;2024-01-11T01:55:11;14.65;;;10.25;;
62574;SDS011;70119;45.638;11.714;2024-01-11T01:57:39;14.60;;;9.48;;
62574;SDS011;70119;45.638;11.714;2024-01-11T02:00:08;13.52;;;9.82;;
62574;SDS011;70119;45.638;11.714;2024-01-11T02:02:36;13.55;;;9.73;;
62574;SDS011;70119;45.638;11.714;2024-01-11T02:05:04;14.82;;;10.52;;
62574;SDS011;70119;45.638;11.714;2024-01-11T02:07:31;12.50;;;9.35;;
62574;SDS011;70119;45.638;11.714;2024-01-11T02:09:57;13.75;;;9.70;;
62574;SDS011;70119;45.638;11.714;2024-01-11T02:12:24;13.05;;;9.77;;
62574;SDS011;70119;45.638;11.714;2024-01-11T02:14:52;13.98;;;9.85;;
62574;SDS011;70119;45.638;11.714;2024-01-11T02:17:19;13.45;;;9.90;;
62574;SDS011;70119;45.638;11.714;2024-01-11T02:19:45;15.48;;;9.73;;
62574;SDS011;70119;45.638;11.714;2024-01-11T02:22:22;13.18;;;9.05;;
62574;SDS011;70119;45.638;11.714;2024-01-11T02:24:54;14.13;;;9.82;;
62574;SDS011;70119;45.638;11.714;2024-01-11T02:27:21;14.00;;;9.65;;
62574;SDS011;70119;45.638;11.714;2024-01-11T02:29:46;13.13;;;9.35;;
62574;SDS011;70119;45.638;11.714;2024-01-11T02:32:12;13.75;;;9.80;;
62574;SDS011;70119;45.638;11.714;2024-01-11T02:34:38;12.98;;;9.35;;
62574;SDS011;70119;45.638;11.714;2024-01-11T02:37:05;14.02;;;10.18;;
62574;SDS011;70119;45.638;11.714;2024-01-11T02:39:31;13.48;;;9.55;;
62574;SDS011;70119;45.638;11.714;2024-01-11T02:41:58;13.75;;;9.52;;
62574;SDS011;70119;45.638;11.714;2024-01-11T02:44:25;12.82;;;9.35;;
62574;SDS011;70119;45.638;11.714;2024-01-11T02:46:50;14.30;;;9.98;;
62574;SDS011;70119;45.638;11.714;2024-01-11T02:49:16;15.25;;;10.20;;
62574;SDS011;70119;45.638;11.714;2024-01-11T02:51:43;13.05;;;9.80;;
62574;SDS011;70119;45.638;11.714;2024-01-11T02:54:08;14.68;;;9.90;;
62574;SDS011;70119;45.638;11.714;2024-01-11T02:56:34;13.43;;;9.80;;
62574;SDS011;70119;45.638;11.714;2024-01-11T02:59:00;13.82;;;9.32;;
62574;SDS011;70119;45.638;11.714;2024-01-11T03:01:26;13.48;;;9.60;;
62574;SDS011;70119;45.638;11.714;2024-01-11T03:03:52;14.73;;;9.98;;
62574;SDS011;70119;45.638;11.714;2024-01-11T03:06:19;13.20;;;9.57;;
62574;SDS011;70119;45.638;11.714;2024-01-11T03:08:49;12.77;;;9.77;;
62574;SDS011;70119;45.638;11.714;2024-01-11T03:11:15;14.85;;;9.80;;
62574;SDS011;70119;45.638;11.714;2024-01-11T03:13:44;13.27;;;9.85;;
62574;SDS011;70119;45.638;11.714;2024-01-11T03:16:10;15.13;;;9.30;;
62574;SDS011;70119;45.638;11.714;2024-01-11T03:18:36;12.57;;;9.02;;
62574;SDS011;70119;45.638;11.714;2024-01-11T03:21:02;13.60;;;9.45;;
62574;SDS011;70119;45.638;11.714;2024-01-11T03:23:28;13.43;;;9.48;;
62574;SDS011;70119;45.638;11.714;2024-01-11T03:25:53;12.20;;;8.88;;
62574;SDS011;70119;45.638;11.714;2024-01-11T03:28:19;12.30;;;8.93;;
62574;SDS011;70119;45.638;11.714;2024-01-11T03:30:45;13.20;;;9.23;;
62574;SDS011;70119;45.638;11.714;2024-01-11T03:33:11;12.75;;;9.45;;
62574;SDS011;70119;45.638;11.714;2024-01-11T03:35:37;12.63;;;8.60;;
62574;SDS011;70119;45.638;11.714;2024-01-11T03:38:05;13.20;;;9.15;;
62574;SDS011;70119;45.638;11.714;2024-01-11T03:40:31;12.52;;;9.20;;
62574;SDS011;70119;45.638;11.714;2024-01-11T03:42:57;13.13;;;9.38;;
62574;SDS011;70119;45.638;11.714;2024-01-11T03:45:23;13.30;;;8.60;;
62574;SDS011;70119;45.638;11.714;2024-01-11T03:47:49;13.20;;;9.32;;
62574;SDS011;70119;45.638;11.714;2024-01-11T03:50:14;13.68;;;9.10;;
62574;SDS011;70119;45.638;11.714;2024-01-11T03:52:41;12.02;;;8.95;;
62574;SDS011;70119;45.638;11.714;2024-01-11T03:55:07;12.85;;;9.45;;
62574;SDS011;70119;45.638;11.714;2024-01-11T03:57:35;12.40;;;8.90;;
62574;SDS011;70119;45.638;11.714;2024-01-11T04:00:01;12.55;;;8.88;;
62574;SDS011;70119;45.638;11.714;2024-01-11T04:02:31;12.75;;;8.88;;
62574;SDS011;70119;45.638;11.714;2024-01-11T04:04:59;12.65;;;8.60;;
62574;SDS011;70119;45.638;11.714;2024-01-11T04:07:29;12.35;;;8.82;;
62574;SDS011;70119;45.638;11.714;2024-01-11T04:09:55;12.63;;;8.80;;
62574;SDS011;70119;45.638;11.714;2024-01-11T04:12:24;12.20;;;8.60;;
62574;SDS011;70119;45.638;11.714;2024-01-11T04:14:51;12.30;;;9.07;;
62574;SDS011;70119;45.638;11.714;2024-01-11T04:17:18;12.82;;;8.57;;
62574;SDS011;70119;45.638;11.714;2024-01-11T04:19:44;13.63;;;8.82;;
62574;SDS011;70119;45.638;11.714;2024-01-11T04:22:10;12.25;;;8.50;;
62574;SDS011;70119;45.638;11.714;2024-01-11T04:24:36;13.82;;;9.07;;
62574;SDS011;70119;45.638;11.714;2024-01-11T04:27:02;12.43;;;8.65;;
62574;SDS011;70119;45.638;11.714;2024-01-11T04:29:28;13.38;;;9.15;;
62574;SDS011;70119;45.638;11.714;2024-01-11T04:31:53;13.63;;;9.07;;
62574;SDS011;70119;45.638;11.714;2024-01-11T04:34:19;12.18;;;8.80;;
62574;SDS011;70119;45.638;11.714;2024-01-11T04:36:45;12.45;;;9.10;;
62574;SDS011;70119;45.638;11.714;2024-01-11T04:39:12;11.13;;;8.23;;
62574;SDS011;70119;45.638;11.714;2024-01-11T04:41:37;12.93;;;8.77;;
62574;SDS011;70119;45.638;11.714;2024-01-11T04:44:04;12.20;;;8.32;;
62574;SDS011;70119;45.638;11.714;2024-01-11T04:46:30;12.65;;;8.80;;
62574;SDS011;70119;45.638;11.714;2024-01-11T04:48:56;12.05;;;8.40;;
62574;SDS011;70119;45.638;11.714;2024-01-11T04:51:22;11.98;;;8.50;;
62574;SDS011;70119;45.638;11.714;2024-01-11T04:53:48;11.40;;;8.07;;
62574;SDS011;70119;45.638;11.714;2024-01-11T04:56:14;10.75;;;7.97;;
62574;SDS011;70119;45.638;11.714;2024-01-11T04:58:41;12.23;;;8.45;;
62574;SDS011;70119;45.638;11.714;2024-01-11T05:01:17;12.35;;;8.57;;
62574;SDS011;70119;45.638;11.714;2024-01-11T05:03:44;11.88;;;8.38;;
62574;SDS011;70119;45.638;11.714;2024-01-11T05:06:20;11.40;;;7.93;;
62574;SDS011;70119;45.638;11.714;2024-01-11T05:08:48;13.23;;;8.60;;
62574;SDS011;70119;45.638;11.714;2024-01-11T05:11:18;11.45;;;8.30;;
62574;SDS011;70119;45.638;11.714;2024-01-11T05:13:44;12.57;;;8.13;;
62574;SDS011;70119;45.638;11.714;2024-01-11T05:16:30;10.88;;;7.93;;
62574;SDS011;70119;45.638;11.714;2024-01-11T05:18:57;11.68;;;8.65;;
62574;SDS011;70119;45.638;11.714;2024-01-11T05:21:23;12.13;;;8.18;;
62574;SDS011;70119;45.638;11.714;2024-01-11T05:23:50;11.50;;;8.43;;
62574;SDS011;70119;45.638;11.714;2024-01-11T05:26:17;11.85;;;8.05;;
62574;SDS011;70119;45.638;11.714;2024-01-11T05:28:44;11.07;;;8.00;;
62574;SDS011;70119;45.638;11.714;2024-01-11T05:31:10;12.43;;;8.48;;
62574;SDS011;70119;45.638;11.714;2024-01-11T05:33:37;11.05;;;8.13;;
62574;SDS011;70119;45.638;11.714;2024-01-11T05:36:04;12.35;;;8.68;;
62574;SDS011;70119;45.638;11.714;2024-01-11T05:38:30;12.23;;;8.35;;
62574;SDS011;70119;45.638;11.714;2024-01-11T05:40:56;10.82;;;8.00;;
62574;SDS011;70119;45.638;11.714;2024-01-11T05:43:22;10.15;;;7.55;;
62574;SDS011;70119;45.638;11.714;2024-01-11T05:45:48;11.43;;;7.97;;
62574;SDS011;70119;45.638;11.714;2024-01-11T05:48:15;10.80;;;7.80;;
62574;SDS011;70119;45.638;11.714;2024-01-11T05:50:41;10.75;;;7.82;;
62574;SDS011;70119;45.638;11.714;2024-01-11T05:53:07;10.95;;;7.82;;
62574;SDS011;70119;45.638;11.714;2024-01-11T05:55:33;11.10;;;7.82;;
62574;SDS011;70119;45.638;11.714;2024-01-11T05:58:00;10.52;;;8.02;;
62574;SDS011;70119;45.638;11.714;2024-01-11T06:00:26;11.27;;;8.02;;
62574;SDS011;70119;45.638;11.714;2024-01-11T06:02:51;12.13;;;7.60;;
62574;SDS011;70119;45.638;11.714;2024-01-11T06:05:18;11.57;;;7.78;;
62574;SDS011;70119;45.638;11.714;2024-01-11T06:07:43;11.60;;;7.65;;
62574;SDS011;70119;45.638;11.714;2024-01-11T06:10:09;12.43;;;8.13;;
62574;SDS011;70119;45.638;11.714;2024-01-11T06:12:35;11.02;;;7.75;;
62574;SDS011;70119;45.638;11.714;2024-01-11T06:15:01;12.90;;;8.27;;
62574;SDS011;70119;45.638;11.714;2024-01-11T06:17:28;11.48;;;8.07;;
62574;SDS011;70119;45.638;11.714;2024-01-11T06:19:55;11.85;;;7.80;;
62574;SDS011;70119;45.638;11.714;2024-01-11T06:22:20;11.80;;;7.93;;
62574;SDS011;70119;45.638;11.714;2024-01-11T06:24:46;12.13;;;7.88;;
62574;SDS011;70119;45.638;11.714;2024-01-11T06:27:12;12.88;;;8.25;;
62574;SDS011;70119;45.638;11.714;2024-01-11T06:29:38;12.68;;;8.60;;
62574;SDS011;70119;45.638;11.714;2024-01-11T06:32:04;10.88;;;7.68;;
62574;SDS011;70119;45.638;11.714;2024-01-11T06:34:30;11.73;;;7.95;;
62574;SDS011;70119;45.638;11.714;2024-01-11T06:36:56;12.20;;;8.02;;
62574;SDS011;70119;45.638;11.714;2024-01-11T06:39:22;10.48;;;7.60;;
62574;SDS011;70119;45.638;11.714;2024-01-11T06:41:48;10.75;;;7.47;;
62574;SDS011;70119;45.638;11.714;2024-01-11T06:44:14;12.38;;;8.00;;
62574;SDS011;70119;45.638;11.714;2024-01-11T06:46:39;11.90;;;8.02;;
62574;SDS011;70119;45.638;11.714;2024-01-11T06:49:07;10.15;;;7.35;;
62574;SDS011;70119;45.638;11.714;2024-01-11T06:51:33;13.02;;;8.10;;
62574;SDS011;70119;45.638;11.714;2024-01-11T06:53:59;12.88;;;8.57;;
62574;SDS011;70119;45.638;11.714;2024-01-11T06:56:26;11.70;;;7.95;;
62574;SDS011;70119;45.638;11.714;2024-01-11T06:58:52;11.68;;;8.00;;
62574;SDS011;70119;45.638;11.714;2024-01-11T07:01:19;11.32;;;7.97;;
62574;SDS011;70119;45.638;11.714;2024-01-11T07:03:46;11.55;;;8.10;;
62574;SDS011;70119;45.638;11.714;2024-01-11T07:06:12;10.80;;;7.72;;
62574;SDS011;70119;45.638;11.714;2024-01-11T07:08:38;12.05;;;8.02;;
62574;SDS011;70119;45.638;11.714;2024-01-11T07:11:04;13.65;;;8.65;;
62574;SDS011;70119;45.638;11.714;2024-01-11T07:13:30;11.57;;;8.07;;
62574;SDS011;70119;45.638;11.714;2024-01-11T07:15:59;12.00;;;7.82;;
62574;SDS011;70119;45.638;11.714;2024-01-11T07:18:28;11.43;;;7.85;;
62574;SDS011;70119;45.638;11.714;2024-01-11T07:20:56;11.70;;;7.85;;
62574;SDS011;70119;45.638;11.714;2024-01-11T07:23:23;11.63;;;7.50;;
62574;SDS011;70119;45.638;11.714;2024-01-11T07:25:49;12.52;;;7.78;;
62574;SDS011;70119;45.638;11.714;2024-01-11T07:28:15;13.70;;;8.30;;
62574;SDS011;70119;45.638;11.714;2024-01-11T07:30:43;11.82;;;7.65;;
62574;SDS011;70119;45.638;11.714;2024-01-11T07:33:12;12.23;;;8.00;;
62574;SDS011;70119;45.638;11.714;2024-01-11T07:35:37;12.20;;;8.25;;
62574;SDS011;70119;45.638;11.714;2024-01-11T07:38:04;11.50;;;7.70;;
62574;SDS011;70119;45.638;11.714;2024-01-11T07:40:31;11.95;;;8.27;;
62574;SDS011;70119;45.638;11.714;2024-01-11T07:42:58;12.57;;;8.05;;
62574;SDS011;70119;45.638;11.714;2024-01-11T07:45:23;12.18;;;7.85;;
62574;SDS011;70119;45.638;11.714;2024-01-11T07:47:49;12.32;;;8.20;;
62574;SDS011;70119;45.638;11.714;2024-01-11T07:50:15;11.07;;;7.85;;
62574;SDS011;70119;45.638;11.714;2024-01-11T07:52:41;11.70;;;8.40;;
62574;SDS011;70119;45.638;11.714;2024-01-11T07:55:07;12.50;;;7.97;;
62574;SDS011;70119;45.638;11.714;2024-01-11T07:57:37;12.13;;;8.27;;
62574;SDS011;70119;45.638;11.714;2024-01-11T08:00:06;12.45;;;8.10;;
62574;SDS011;70119;45.638;11.714;2024-01-11T08:02:33;12.85;;;8.20;;
62574;SDS011;70119;45.638;11.714;2024-01-11T08:05:00;12.68;;;7.72;;
62574;SDS011;70119;45.638;11.714;2024-01-11T08:07:26;10.77;;;7.82;;
62574;SDS011;70119;45.638;11.714;2024-01-11T08:09:53;12.48;;;8.35;;
62574;SDS011;70119;45.638;11.714;2024-01-11T08:12:19;12.15;;;8.18;;
62574;SDS011;70119;45.638;11.714;2024-01-11T08:14:45;12.07;;;7.85;;
62574;SDS011;70119;45.638;11.714;2024-01-11T08:17:14;13.30;;;8.68;;
62574;SDS011;70119;45.638;11.714;2024-01-11T08:19:40;12.45;;;8.10;;
62574;SDS011;70119;45.638;11.714;2024-01-11T08:22:08;13.18;;;8.73;;
62574;SDS011;70119;45.638;11.714;2024-01-11T08:24:35;13.02;;;8.23;;
62574;SDS011;70119;45.638;11.714;2024-01-11T08:27:02;12.00;;;7.97;;
62574;SDS011;70119;45.638;11.714;2024-01-11T08:29:28;12.25;;;8.32;;
62574;SDS011;70119;45.638;11.714;2024-01-11T08:31:54;12.93;;;8.05;;
62574;SDS011;70119;45.638;11.714;2024-01-11T08:34:22;12.70;;;8.20;;
62574;SDS011;70119;45.638;11.714;2024-01-11T08:36:51;13.70;;;8.27;;
62574;SDS011;70119;45.638;11.714;2024-01-11T08:39:17;12.38;;;7.80;;
62574;SDS011;70119;45.638;11.714;2024-01-11T08:41:44;12.07;;;8.32;;
62574;SDS011;70119;45.638;11.714;2024-01-11T08:44:11;12.65;;;8.25;;
62574;SDS011;70119;45.638;11.714;2024-01-11T08:46:39;12.77;;;8.07;;
62574;SDS011;70119;45.638;11.714;2024-01-11T08:49:05;12.93;;;8.38;;
62574;SDS011;70119;45.638;11.714;2024-01-11T08:51:31;10.98;;;7.90;;
62574;SDS011;70119;45.638;11.714;2024-01-11T08:53:57;12.43;;;8.05;;
62574;SDS011;70119;45.638;11.714;2024-01-11T08:56:25;11.63;;;7.95;;
62574;SDS011;70119;45.638;11.714;2024-01-11T09:01:21;11.20;;;7.20;;
62574;SDS011;70119;45.638;11.714;2024-01-11T09:03:48;12.75;;;7.93;;
62574;SDS011;70119;45.638;11.714;2024-01-11T09:06:18;12.20;;;7.90;;
62574;SDS011;70119;45.638;11.714;2024-01-11T09:08:48;12.55;;;7.70;;
62574;SDS011;70119;45.638;11.714;2024-01-11T09:11:17;12.05;;;7.63;;
62574;SDS011;70119;45.638;11.714;2024-01-11T09:13:42;11.52;;;7.82;;
62574;SDS011;70119;45.638;11.714;2024-01-11T09:16:08;11.52;;;7.65;;
62574;SDS011;70119;45.638;11.714;2024-01-11T09:18:35;12.20;;;7.95;;
62574;SDS011;70119;45.638;11.714;2024-01-11T09:21:00;10.07;;;7.15;;
62574;SDS011;70119;45.638;11.714;2024-01-11T09:23:26;10.32;;;7.25;;
62574;SDS011;70119;45.638;11.714;2024-01-11T09:25:52;10.75;;;7.45;;
62574;SDS011;70119;45.638;11.714;2024-01-11T09:28:18;11.65;;;7.55;;
62574;SDS011;70119;45.638;11.714;2024-01-11T09:30:44;10.73;;;7.65;;
62574;SDS011;70119;45.638;11.714;2024-01-11T09:33:10;12.55;;;7.82;;
62574;SDS011;70119;45.638;11.714;2024-01-11T09:35:36;11.10;;;7.32;;
62574;SDS011;70119;45.638;11.714;2024-01-11T09:38:03;12.38;;;7.72;;
62574;SDS011;70119;45.638;11.714;2024-01-11T09:40:29;12.45;;;7.68;;
62574;SDS011;70119;45.638;11.714;2024-01-11T09:42:55;11.77;;;7.70;;
62574;SDS011;70119;45.638;11.714;2024-01-11T09:45:22;11.52;;;6.95;;
62574;SDS011;70119;45.638;11.714;2024-01-11T09:47:51;11.15;;;7.40;;
62574;SDS011;70119;45.638;11.714;2024-01-11T09:50:17;10.25;;;7.35;;
62574;SDS011;70119;45.638;11.714;2024-01-11T09:52:47;10.88;;;7.65;;
62574;SDS011;70119;45.638;11.714;2024-01-11T09:55:14;11.52;;;7.32;;
62574;SDS011;70119;45.638;11.714;2024-01-11T09:57:42;10.45;;;7.38;;
62574;SDS011;70119;45.638;11.714;2024-01-11T10:00:13;12.10;;;7.72;;
62574;SDS011;70119;45.638;11.714;2024-01-11T10:02:44;10.55;;;6.70;;
62574;SDS011;70119;45.638;11.714;2024-01-11T10:05:13;11.07;;;6.93;;
62574;SDS011;70119;45.638;11.714;2024-01-11T10:07:41;10.65;;;7.18;;
62574;SDS011;70119;45.638;11.714;2024-01-11T10:10:07;11.27;;;7.55;;
62574;SDS011;70119;45.638;11.714;2024-01-11T10:12:36;11.93;;;7.40;;
62574;SDS011;70119;45.638;11.714;2024-01-11T10:15:06;10.27;;;7.35;;
62574;SDS011;70119;45.638;11.714;2024-01-11T10:17:42;10.57;;;7.20;;
62574;SDS011;70119;45.638;11.714;2024-01-11T10:20:11;10.85;;;6.82;;
62574;SDS011;70119;45.638;11.714;2024-01-11T10:22:39;10.98;;;7.10;;
62574;SDS011;70119;45.638;11.714;2024-01-11T10:25:10;9.20;;;6.55;;
62574;SDS011;70119;45.638;11.714;2024-01-11T10:27:41;9.88;;;6.63;;
62574;SDS011;70119;45.638;11.714;2024-01-11T10:30:08;11.05;;;7.03;;
62574;SDS011;70119;45.638;11.714;2024-01-11T10:32:45;10.50;;;6.72;;
62574;SDS011;70119;45.638;11.714;2024-01-11T10:35:12;10.77;;;6.60;;
62574;SDS011;70119;45.638;11.714;2024-01-11T10:37:39;10.32;;;7.07;;
62574;SDS011;70119;45.638;11.714;2024-01-11T10:40:07;10.30;;;7.32;;
62574;SDS011;70119;45.638;11.714;2024-01-11T10:42:43;9.43;;;6.25;;
62574;SDS011;70119;45.638;11.714;2024-01-11T10:45:13;11.45;;;6.93;;
62574;SDS011;70119;45.638;11.714;2024-01-11T10:48:02;10.10;;;6.97;;
62574;SDS011;70119;45.638;11.714;2024-01-11T10:50:35;10.77;;;6.85;;
62574;SDS011;70119;45.638;11.714;2024-01-11T10:53:25;9.95;;;6.93;;
62574;SDS011;70119;45.638;11.714;2024-01-11T10:56:16;10.63;;;7.00;;
62574;SDS011;70119;45.638;11.714;2024-01-11T10:58:42;13.00;;;8.77;;
62574;SDS011;70119;45.638;11.714;2024-01-11T11:01:12;12.15;;;7.18;;
62574;SDS011;70119;45.638;11.714;2024-01-11T11:03:39;10.60;;;7.10;;
62574;SDS011;70119;45.638;11.714;2024-01-11T11:06:09;11.43;;;7.70;;
62574;SDS011;70119;45.638;11.714;2024-01-11T11:08:39;9.95;;;6.50;;
62574;SDS011;70119;45.638;11.714;2024-01-11T11:13:46;9.35;;;6.68;;
62574;SDS011;70119;45.638;11.714;2024-01-11T11:16:16;11.45;;;6.78;;
62574;SDS011;70119;45.638;11.714;2024-01-11T11:18:42;9.85;;;6.35;;
62574;SDS011;70119;45.638;11.714;2024-01-11T11:21:08;10.07;;;6.32;;
62574;SDS011;70119;45.638;11.714;2024-01-11T11:23:38;10.68;;;6.50;;
62574;SDS011;70119;45.638;11.714;2024-01-11T11:26:05;9.65;;;6.47;;
62574;SDS011;70119;45.638;11.714;2024-01-11T11:28:35;9.87;;;6.67;;
62574;SDS011;70119;45.638;11.714;2024-01-11T11:31:02;8.55;;;6.25;;
62574;SDS011;70119;45.638;11.714;2024-01-11T11:33:29;9.18;;;6.13;;
62574;SDS011;70119;45.638;11.714;2024-01-11T11:35:59;8.82;;;5.93;;
62574;SDS011;70119;45.638;11.714;2024-01-11T11:38:28;9.93;;;6.47;;
62574;SDS011;70119;45.638;11.714;2024-01-11T11:41:03;9.27;;;6.68;;
62574;SDS011;70119;45.638;11.714;2024-01-11T11:43:31;8.73;;;5.97;;
62574;SDS011;70119;45.638;11.714;2024-01-11T11:46:02;9.57;;;6.40;;
62574;SDS011;70119;45.638;11.714;2024-01-11T11:51:06;8.93;;;5.80;;
62574;SDS011;70119;45.638;11.714;2024-01-11T11:53:34;9.45;;;6.47;;
62574;SDS011;70119;45.638;11.714;2024-01-11T11:56:01;8.25;;;5.78;;
62574;SDS011;70119;45.638;11.714;2024-01-11T11:58:38;9.52;;;5.93;;
62574;SDS011;70119;45.638;11.714;2024-01-11T12:01:17;8.80;;;5.55;;
62574;SDS011;70119;45.638;11.714;2024-01-11T12:03:52;9.82;;;6.13;;
62574;SDS011;70119;45.638;11.714;2024-01-11T12:06:20;8.35;;;5.78;;
62574;SDS011;70119;45.638;11.714;2024-01-11T12:08:49;9.63;;;5.65;;
62574;SDS011;70119;45.638;11.714;2024-01-11T12:11:19;8.63;;;5.70;;
62574;SDS011;70119;45.638;11.714;2024-01-11T12:13:47;9.32;;;5.88;;
62574;SDS011;70119;45.638;11.714;2024-01-11T12:16:14;8.93;;;5.82;;
62574;SDS011;70119;45.638;11.714;2024-01-11T12:18:40;9.02;;;5.70;;
62574;SDS011;70119;45.638;11.714;2024-01-11T12:21:06;8.25;;;5.60;;
62574;SDS011;70119;45.638;11.714;2024-01-11T12:23:34;10.80;;;6.40;;
62574;SDS011;70119;45.638;11.714;2024-01-11T12:26:06;10.23;;;6.10;;
62574;SDS011;70119;45.638;11.714;2024-01-11T12:28:38;7.80;;;5.43;;
62574;SDS011;70119;45.638;11.714;2024-01-11T12:31:06;8.27;;;5.70;;
62574;SDS011;70119;45.638;11.714;2024-01-11T12:33:32;9.10;;;5.95;;
62574;SDS011;70119;45.638;11.714;2024-01-11T12:36:00;8.30;;;5.72;;
62574;SDS011;70119;45.638;11.714;2024-01-11T12:38:27;9.30;;;6.03;;
62574;SDS011;70119;45.638;11.714;2024-01-11T12:40:54;7.82;;;5.43;;
62574;SDS011;70119;45.638;11.714;2024-01-11T12:43:20;8.60;;;5.80;;
62574;SDS011;70119;45.638;11.714;2024-01-11T12:45:46;8.80;;;5.72;;
62574;SDS011;70119;45.638;11.714;2024-01-11T12:48:12;8.32;;;5.50;;
62574;SDS011;70119;45.638;11.714;2024-01-11T12:50:41;9.35;;;5.70;;
62574;SDS011;70119;45.638;11.714;2024-01-11T12:53:08;9.73;;;5.75;;
62574;SDS011;70119;45.638;11.714;2024-01-11T12:55:52;8.32;;;5.57;;
62574;SDS011;70119;45.638;11.714;2024-01-11T12:58:36;8.30;;;5.70;;
62574;SDS011;70119;45.638;11.714;2024-01-11T13:01:03;9.57;;;5.63;;
62574;SDS011;70119;45.638;11.714;2024-01-11T13:03:33;8.70;;;5.72;;
62574;SDS011;70119;45.638;11.714;2024-01-11T13:06:03;9.02;;;5.80;;
62574;SDS011;70119;45.638;11.714;2024-01-11T13:08:34;8.15;;;5.07;;
62574;SDS011;70119;45.638;11.714;2024-01-11T13:11:02;9.18;;;5.80;;
62574;SDS011;70119;45.638;11.714;2024-01-11T13:13:32;9.45;;;5.90;;
62574;SDS011;70119;45.638;11.714;2024-01-11T13:15:59;9.38;;;5.65;;
62574;SDS011;70119;45.638;11.714;2024-01-11T13:18:25;10.15;;;6.25;;
62574;SDS011;70119;45.638;11.714;2024-01-11T13:20:51;8.57;;;6.00;;
62574;SDS011;70119;45.638;11.714;2024-01-11T13:23:18;8.55;;;5.63;;
62574;SDS011;70119;45.638;11.714;2024-01-11T13:25:46;9.68;;;6.45;;
62574;SDS011;70119;45.638;11.714;2024-01-11T13:28:17;10.90;;;5.97;;
62574;SDS011;70119;45.638;11.714;2024-01-11T13:30:46;8.57;;;5.70;;
62574;SDS011;70119;45.638;11.714;2024-01-11T13:33:13;7.63;;;5.40;;
62574;SDS011;70119;45.638;11.714;2024-01-11T13:35:42;8.73;;;5.80;;
62574;SDS011;70119;45.638;11.714;2024-01-11T13:38:09;8.20;;;5.30;;
62574;SDS011;70119;45.638;11.714;2024-01-11T13:40:36;9.48;;;5.90;;
62574;SDS011;70119;45.638;11.714;2024-01-11T13:43:05;9.10;;;5.78;;
62574;SDS011;70119;45.638;11.714;2024-01-11T13:45:31;8.90;;;5.85;;
62574;SDS011;70119;45.638;11.714;2024-01-11T13:47:59;9.48;;;5.80;;
62574;SDS011;70119;45.638;11.714;2024-01-11T13:50:27;9.88;;;5.70;;
62574;SDS011;70119;45.638;11.714;2024-01-11T13:52:53;9.50;;;6.00;;
62574;SDS011;70119;45.638;11.714;2024-01-11T13:55:20;8.57;;;5.60;;
62574;SDS011;70119;45.638;11.714;2024-01-11T13:57:47;9.18;;;5.63;;
62574;SDS011;70119;45.638;11.714;2024-01-11T14:00:14;9.63;;;6.95;;
62574;SDS011;70119;45.638;11.714;2024-01-11T14:02:43;8.32;;;5.38;;
62574;SDS011;70119;45.638;11.714;2024-01-11T14:05:10;8.32;;;5.57;;
62574;SDS011;70119;45.638;11.714;2024-01-11T14:07:40;10.68;;;6.65;;
62574;SDS011;70119;45.638;11.714;2024-01-11T14:10:07;8.80;;;6.00;;
62574;SDS011;70119;45.638;11.714;2024-01-11T14:12:35;7.82;;;5.35;;
62574;SDS011;70119;45.638;11.714;2024-01-11T14:15:04;8.32;;;5.28;;
62574;SDS011;70119;45.638;11.714;2024-01-11T14:17:32;7.50;;;5.30;;
62574;SDS011;70119;45.638;11.714;2024-01-11T14:20:00;8.30;;;5.68;;
62574;SDS011;70119;45.638;11.714;2024-01-11T14:22:26;9.35;;;6.05;;
62574;SDS011;70119;45.638;11.714;2024-01-11T14:24:53;8.70;;;5.72;;
62574;SDS011;70119;45.638;11.714;2024-01-11T14:27:21;8.02;;;5.50;;
62574;SDS011;70119;45.638;11.714;2024-01-11T14:29:52;8.75;;;5.88;;
62574;SDS011;70119;45.638;11.714;2024-01-11T14:32:22;12.07;;;7.18;;